Time;durP1;ratioP1;P1;durP2;ratioP2;P2;SDS_P1;SDS_P2;PMS_P1;PMS_P2;Temp;Humidity;BMP_temperature;BMP_pressure;BME280_temperature;BME280_humidity;BME280_pressure;Samples;Min_cycle;Max_cycle;Signal;HPM_P1;HPM_P2
2022/07/23 00:00:09;;;;;;;3.60;1.88;;;15.40;99.90;;;;;;5012426;28;20041;-37
2022/07/23 00:02:35;;;;;;;3.58;1.90;;;15.30;99.90;;;;;;5012555;28;20495;-37
2022/07/23 00:05:00;;;;;;;6.13;1.83;;;15.30;99.90;;;;;;5012447;28;20034;-39
2022/07/23 00:07:26;;;;;;;2.88;1.67;;;15.30;99.90;;;;;;5012266;28;20406;-37
2022/07/23 00:09:52;;;;;;;2.90;1.60;;;15.30;99.90;;;;;;5002882;28;20483;-37
2022/07/23 00:12:18;;;;;;;2.47;1.50;;;15.30;99.90;;;;;;5007603;28;20046;-36
2022/07/23 00:14:43;;;;;;;4.40;1.52;;;15.30;99.90;;;;;;5010828;28;20050;-36
2022/07/23 00:17:09;;;;;;;3.03;1.60;;;15.30;99.90;;;;;;5008033;28;20065;-37
2022/07/23 00:19:35;;;;;;;5.18;1.85;;;15.30;99.90;;;;;;5006167;28;20046;-37
2022/07/23 00:22:01;;;;;;;3.97;1.70;;;15.30;99.90;;;;;;5007496;28;20069;-37
2022/07/23 00:24:26;;;;;;;4.10;1.92;;;15.20;99.90;;;;;;5012072;28;20061;-37
2022/07/23 00:26:52;;;;;;;4.88;2.30;;;15.20;99.90;;;;;;5011889;28;20380;-37
2022/07/23 00:29:17;;;;;;;3.42;1.67;;;15.20;99.90;;;;;;5012003;28;20050;-36
2022/07/23 00:31:43;;;;;;;3.33;2.15;;;15.20;99.90;;;;;;5007981;28;20337;-36
2022/07/23 00:34:09;;;;;;;3.88;1.98;;;15.20;99.90;;;;;;5012117;28;20038;-37
2022/07/23 00:36:35;;;;;;;3.42;1.88;;;15.20;99.90;;;;;;5003989;28;20039;-36
2022/07/23 00:39:00;;;;;;;3.63;1.90;;;15.20;99.90;;;;;;5009378;28;20129;-37
2022/07/23 00:41:26;;;;;;;3.75;1.63;;;15.20;99.90;;;;;;5011143;28;20045;-37
2022/07/23 00:43:52;;;;;;;3.95;1.85;;;15.10;99.90;;;;;;5011988;28;20044;-37
2022/07/23 00:46:21;;;;;;;3.20;1.70;;;15.10;99.90;;;;;;5008731;28;20411;-37
2022/07/23 00:48:47;;;;;;;4.35;1.67;;;15.10;99.90;;;;;;5001418;28;20038;-37
2022/07/23 00:51:14;;;;;;;5.05;2.05;;;15.10;99.90;;;;;;5011453;28;20041;-36
2022/07/23 00:53:41;;;;;;;3.42;1.63;;;15.10;99.90;;;;;;5008360;28;20436;-37
2022/07/23 00:56:08;;;;;;;3.28;1.83;;;15.00;99.90;;;;;;5011202;28;20120;-37
2022/07/23 00:58:35;;;;;;;4.93;1.83;;;15.00;99.90;;;;;;5011233;28;20377;-36
2022/07/23 01:01:01;;;;;;;3.55;1.60;;;15.00;99.90;;;;;;5011206;28;20503;-37
2022/07/23 01:03:27;;;;;;;3.97;1.50;;;15.00;99.90;;;;;;5011406;28;20046;-37
2022/07/23 01:05:53;;;;;;;4.78;1.60;;;15.00;99.90;;;;;;5011170;28;20124;-36
2022/07/23 01:08:19;;;;;;;2.78;1.60;;;14.90;99.90;;;;;;5011318;28;20115;-36
2022/07/23 01:10:47;;;;;;;2.85;1.42;;;14.90;99.90;;;;;;5005545;28;20049;-36
2022/07/23 01:13:12;;;;;;;3.28;1.42;;;14.90;99.90;;;;;;5004247;28;20059;-37
2022/07/23 01:15:39;;;;;;;2.80;1.20;;;14.90;99.90;;;;;;5010753;28;20128;-35
2022/07/23 01:18:06;;;;;;;2.75;1.55;;;14.90;99.90;;;;;;5011087;28;20404;-37
2022/07/23 01:20:32;;;;;;;2.78;1.75;;;14.90;99.90;;;;;;5010854;28;20273;-37
2022/07/23 01:22:58;;;;;;;3.20;2.00;;;14.80;99.90;;;;;;5010944;28;20484;-39
2022/07/23 01:25:24;;;;;;;2.53;1.25;;;14.80;99.90;;;;;;5010920;28;20133;-36
2022/07/23 01:27:52;;;;;;;2.60;1.73;;;14.80;99.90;;;;;;5010793;28;20036;-37
2022/07/23 01:30:18;;;;;;;2.70;1.52;;;14.80;99.90;;;;;;5009045;28;20045;-37
2022/07/23 01:32:44;;;;;;;4.55;1.52;;;14.80;99.90;;;;;;5010773;28;20417;-36
2022/07/23 01:35:10;;;;;;;2.28;1.52;;;14.80;99.90;;;;;;5010668;28;20141;-37
2022/07/23 01:37:36;;;;;;;3.20;1.63;;;14.80;99.90;;;;;;5010158;28;20034;-37
2022/07/23 01:40:02;;;;;;;3.70;2.00;;;14.70;99.90;;;;;;5010804;28;20069;-37
2022/07/23 01:42:28;;;;;;;4.55;2.28;;;14.70;99.90;;;;;;5010328;28;20049;-36
2022/07/23 01:44:54;;;;;;;2.42;1.23;;;14.70;99.90;;;;;;5008291;28;20050;-36
2022/07/23 01:47:19;;;;;;;4.93;1.80;;;14.70;99.90;;;;;;5004505;28;20042;-39
2022/07/23 01:49:45;;;;;;;2.80;1.48;;;14.70;99.90;;;;;;5009204;28;20042;-37
2022/07/23 01:52:11;;;;;;;2.78;1.55;;;14.70;99.90;;;;;;5003165;28;20380;-37
2022/07/23 01:54:38;;;;;;;3.90;1.50;;;14.70;99.90;;;;;;5007616;28;20638;-37
2022/07/23 01:57:04;;;;;;;2.72;1.73;;;14.70;99.90;;;;;;5009917;28;20034;-36
2022/07/23 01:59:30;;;;;;;2.70;1.80;;;14.70;99.90;;;;;;5010447;28;20096;-36
2022/07/23 02:01:56;;;;;;;3.20;1.77;;;14.70;99.90;;;;;;5002687;28;20132;-39
2022/07/23 02:04:23;;;;;;;3.10;1.30;;;14.70;99.90;;;;;;5010446;28;20046;-37
2022/07/23 02:06:50;;;;;;;5.10;1.75;;;14.70;99.90;;;;;;5007790;28;20053;-36
2022/07/23 02:09:16;;;;;;;3.67;1.83;;;14.80;99.90;;;;;;5010322;28;20498;-37
2022/07/23 02:11:41;;;;;;;2.42;1.42;;;14.80;99.90;;;;;;5010143;28;20511;-37
2022/07/23 02:14:07;;;;;;;4.25;2.20;;;14.70;99.90;;;;;;5010426;28;20038;-37
2022/07/23 02:16:33;;;;;;;5.00;2.15;;;14.70;99.90;;;;;;5009863;28;20046;-36
2022/07/23 02:18:59;;;;;;;4.63;2.03;;;14.70;99.90;;;;;;5002624;28;20041;-36
2022/07/23 02:21:24;;;;;;;3.20;1.30;;;14.70;99.90;;;;;;5009755;28;20545;-37
2022/07/23 02:23:50;;;;;;;2.65;1.40;;;14.60;99.90;;;;;;5009942;28;20515;-36
2022/07/23 02:26:16;;;;;;;1.90;1.10;;;14.60;99.90;;;;;;5009826;28;20065;-36
2022/07/23 02:28:42;;;;;;;2.78;1.33;;;14.60;99.90;;;;;;5008571;28;20046;-36
2022/07/23 02:31:07;;;;;;;1.90;1.10;;;14.60;99.90;;;;;;5009765;28;20149;-39
2022/07/23 02:33:33;;;;;;;2.42;1.23;;;14.50;99.90;;;;;;5010017;28;20038;-36
2022/07/23 02:35:59;;;;;;;2.35;1.40;;;14.40;99.90;;;;;;5002246;28;20053;-36
2022/07/23 02:38:26;;;;;;;2.70;1.33;;;14.40;99.90;;;;;;5010025;28;20041;-37
2022/07/23 02:40:51;;;;;;;5.07;1.45;;;14.40;99.90;;;;;;5009655;28;20434;-36
2022/07/23 02:43:17;;;;;;;2.63;1.50;;;14.40;99.90;;;;;;5010077;28;20044;-36
2022/07/23 02:45:42;;;;;;;3.08;1.50;;;14.40;99.90;;;;;;5009903;28;20134;-36
2022/07/23 02:48:08;;;;;;;2.60;1.40;;;14.30;99.90;;;;;;5009637;28;20073;-39
2022/07/23 02:50:34;;;;;;;2.60;1.13;;;14.30;99.90;;;;;;5009892;28;20494;-36
2022/07/23 02:53:00;;;;;;;3.33;1.20;;;14.30;99.90;;;;;;5006053;28;20180;-37
2022/07/23 02:55:26;;;;;;;2.63;1.33;;;14.20;99.90;;;;;;5010026;28;20452;-36
2022/07/23 02:57:52;;;;;;;3.83;1.38;;;14.10;99.90;;;;;;5009522;28;20740;-36
2022/07/23 03:00:18;;;;;;;2.53;1.42;;;14.10;99.90;;;;;;5009821;28;20060;-36
2022/07/23 03:02:44;;;;;;;2.67;1.30;;;14.00;99.90;;;;;;5009597;28;20534;-37
2022/07/23 03:05:09;;;;;;;3.17;1.25;;;14.00;99.90;;;;;;5011737;28;20546;-36
2022/07/23 03:07:35;;;;;;;2.75;1.40;;;14.00;99.90;;;;;;5013409;28;20140;-36
2022/07/23 03:10:01;;;;;;;2.78;1.50;;;13.90;99.90;;;;;;5009048;28;20041;-36
2022/07/23 03:12:27;;;;;;;3.30;1.75;;;13.90;99.90;;;;;;5009855;28;20430;-44
2022/07/23 03:14:53;;;;;;;2.92;1.30;;;14.00;99.90;;;;;;5006310;28;20056;-37
2022/07/23 03:17:18;;;;;;;1.60;1.02;;;14.00;99.90;;;;;;5013039;28;20482;-36
2022/07/23 03:19:44;;;;;;;2.97;1.30;;;13.90;99.90;;;;;;5013790;28;20057;-37
2022/07/23 03:22:10;;;;;;;4.20;1.60;;;13.90;99.90;;;;;;5013120;28;20044;-38
2022/07/23 03:24:53;;;;;;;3.38;1.23;;;13.90;99.90;;;;;;5012683;28;20060;-36
2022/07/23 03:27:20;;;;;;;3.13;1.63;;;13.90;99.90;;;;;;5002409;28;20046;-36
2022/07/23 03:29:45;;;;;;;2.08;1.00;;;13.90;99.90;;;;;;5009922;28;20086;-36
2022/07/23 03:32:11;;;;;;;1.65;0.75;;;13.80;99.90;;;;;;5006553;28;20038;-37
2022/07/23 03:34:37;;;;;;;1.25;0.50;;;13.80;99.90;;;;;;5000723;28;20037;-36
2022/07/23 03:37:03;;;;;;;0.82;0.40;;;13.70;99.90;;;;;;5006835;28;20383;-37
2022/07/23 03:39:29;;;;;;;0.88;0.40;;;13.60;99.90;;;;;;5000618;28;20046;-38
2022/07/23 03:41:54;;;;;;;1.50;0.38;;;13.60;99.90;;;;;;5011074;28;20044;-36
2022/07/23 03:44:20;;;;;;;0.60;0.20;;;13.60;99.90;;;;;;5007051;28;20092;-36
2022/07/23 03:46:46;;;;;;;1.95;0.30;;;13.50;99.90;;;;;;5012849;28;20060;-37
2022/07/23 03:49:11;;;;;;;1.02;0.45;;;13.50;99.90;;;;;;5013047;28;20044;-36
2022/07/23 03:51:37;;;;;;;2.17;0.60;;;13.40;99.90;;;;;;5012022;28;20046;-37
2022/07/23 03:54:03;;;;;;;1.45;0.70;;;13.30;99.90;;;;;;5012970;28;20068;-36
2022/07/23 03:56:28;;;;;;;2.38;0.70;;;13.30;99.90;;;;;;5012556;28;20045;-36
2022/07/23 03:58:54;;;;;;;1.98;0.45;;;13.20;99.90;;;;;;5012523;28;20038;-38
2022/07/23 04:01:20;;;;;;;0.88;0.35;;;13.20;99.90;;;;;;5003689;28;20117;-36
2022/07/23 04:03:46;;;;;;;3.30;0.50;;;13.20;99.90;;;;;;5012450;28;20044;-37
2022/07/23 04:06:13;;;;;;;1.30;0.57;;;13.20;99.90;;;;;;5011844;28;20045;-36
2022/07/23 04:08:39;;;;;;;1.13;0.43;;;13.20;99.90;;;;;;5012284;28;20499;-36
2022/07/23 04:11:05;;;;;;;3.63;0.60;;;13.20;99.90;;;;;;5012010;28;20115;-36
2022/07/23 04:13:32;;;;;;;1.40;0.68;;;13.20;99.90;;;;;;5012309;28;20041;-36
2022/07/23 04:15:58;;;;;;;1.48;0.80;;;13.20;99.90;;;;;;5005506;28;20093;-36
2022/07/23 04:18:24;;;;;;;1.50;0.63;;;13.20;99.90;;;;;;5012182;28;20073;-37
2022/07/23 04:20:51;;;;;;;2.90;0.90;;;13.20;99.90;;;;;;5011987;28;20056;-37
2022/07/23 04:23:17;;;;;;;2.45;0.90;;;13.30;99.90;;;;;;5010804;28;20491;-36
2022/07/23 04:25:43;;;;;;;1.50;0.90;;;13.30;99.90;;;;;;5006793;28;20042;-36
2022/07/23 04:28:08;;;;;;;2.55;0.85;;;13.30;99.90;;;;;;5000100;28;20160;-38
2022/07/23 04:30:34;;;;;;;1.85;0.90;;;13.40;99.90;;;;;;5006004;28;20415;-36
2022/07/23 04:33:00;;;;;;;2.03;1.23;;;13.50;99.90;;;;;;4998517;28;20432;-36
2022/07/23 04:35:26;;;;;;;2.67;1.00;;;13.50;99.90;;;;;;4995259;28;20038;-36
2022/07/23 04:37:51;;;;;;;2.05;1.10;;;13.60;99.90;;;;;;5003910;28;20469;-38
2022/07/23 04:40:17;;;;;;;2.30;1.02;;;13.70;99.90;;;;;;5010419;28;20158;-37
2022/07/23 04:42:43;;;;;;;2.53;1.20;;;13.70;99.90;;;;;;5001326;28;20149;-37
2022/07/23 04:45:09;;;;;;;1.95;1.10;;;13.80;99.90;;;;;;5010295;28;20133;-37
2022/07/23 04:47:35;;;;;;;2.65;1.10;;;13.80;99.90;;;;;;5007429;28;20045;-38
2022/07/23 04:50:00;;;;;;;1.73;0.93;;;13.90;99.90;;;;;;5010058;28;20049;-36
2022/07/23 04:52:26;;;;;;;2.00;0.70;;;13.90;99.90;;;;;;5011240;28;20061;-36
2022/07/23 04:54:52;;;;;;;1.38;0.70;;;14.00;99.90;;;;;;5011745;28;20124;-37
2022/07/23 04:57:17;;;;;;;1.65;0.70;;;14.10;99.90;;;;;;5011129;28;20085;-36
2022/07/23 04:59:43;;;;;;;2.40;0.63;;;14.10;99.90;;;;;;5011735;28;20084;-36
2022/07/23 05:02:08;;;;;;;1.10;0.60;;;14.10;99.90;;;;;;5008891;28;20781;-38
2022/07/23 05:04:34;;;;;;;1.00;0.60;;;14.10;99.90;;;;;;5003376;28;20133;-37
2022/07/23 05:07:00;;;;;;;2.45;0.73;;;14.10;99.90;;;;;;5011194;28;20065;-35
2022/07/23 05:09:26;;;;;;;1.70;0.80;;;14.20;99.90;;;;;;5011620;28;20086;-36
2022/07/23 05:11:51;;;;;;;3.00;1.38;;;14.20;99.90;;;;;;5000117;28;20694;-37
2022/07/23 05:14:17;;;;;;;2.30;0.70;;;14.30;99.90;;;;;;4999603;28;20516;-37
2022/07/23 05:16:43;;;;;;;2.95;0.70;;;14.30;99.90;;;;;;5009581;28;20050;-36
2022/07/23 05:19:08;;;;;;;3.17;1.10;;;14.40;99.90;;;;;;5010981;28;20072;-37
2022/07/23 05:21:34;;;;;;;1.42;0.80;;;14.40;99.90;;;;;;5001622;28;20034;-36
2022/07/23 05:24:00;;;;;;;3.42;1.40;;;14.50;99.90;;;;;;5010896;28;20394;-37
2022/07/23 05:26:25;;;;;;;2.20;1.05;;;14.60;99.90;;;;;;5010757;28;20549;-36
2022/07/23 05:28:51;;;;;;;2.22;1.10;;;14.70;99.90;;;;;;5010689;28;20042;-37
2022/07/23 05:31:17;;;;;;;4.00;1.35;;;14.80;99.90;;;;;;5010898;28;20117;-36
2022/07/23 05:33:43;;;;;;;4.25;1.45;;;14.80;99.90;;;;;;4998023;28;20528;-36
2022/07/23 05:36:09;;;;;;;4.68;1.20;;;14.90;99.90;;;;;;5007426;28;20058;-36
2022/07/23 05:38:35;;;;;;;3.65;1.17;;;14.90;99.90;;;;;;5009989;28;20045;-39
2022/07/23 05:41:01;;;;;;;4.15;1.60;;;15.00;99.90;;;;;;5005581;28;20049;-36
2022/07/23 05:43:27;;;;;;;3.17;1.08;;;15.00;99.90;;;;;;5010818;28;20045;-36
2022/07/23 05:45:53;;;;;;;3.75;1.40;;;15.10;99.90;;;;;;5010777;28;20049;-36
2022/07/23 05:48:19;;;;;;;5.53;1.40;;;15.20;99.90;;;;;;5005298;28;20061;-37
2022/07/23 05:50:45;;;;;;;4.00;1.50;;;15.20;99.90;;;;;;5010657;28;20513;-39
2022/07/23 05:53:11;;;;;;;4.32;1.70;;;15.30;99.90;;;;;;5008355;28;20041;-37
2022/07/23 05:55:36;;;;;;;6.32;1.60;;;15.40;99.90;;;;;;5009560;28;20446;-36
2022/07/23 05:58:02;;;;;;;4.85;1.77;;;15.40;99.90;;;;;;5010125;28;20025;-36
2022/07/23 06:00:28;;;;;;;5.97;1.92;;;15.50;99.90;;;;;;5009040;28;20467;-38
2022/07/23 06:02:54;;;;;;;4.63;1.38;;;15.60;99.90;;;;;;5005948;28;20053;-37
2022/07/23 06:05:20;;;;;;;5.28;1.13;;;15.60;99.90;;;;;;5005675;28;20839;-37
2022/07/23 06:07:45;;;;;;;3.63;1.02;;;15.70;99.90;;;;;;4999252;28;20046;-35
2022/07/23 06:10:11;;;;;;;4.53;1.30;;;15.80;99.90;;;;;;5004735;28;20045;-36
2022/07/23 06:12:37;;;;;;;2.95;1.10;;;15.80;99.90;;;;;;5008339;28;20034;-43
2022/07/23 06:15:03;;;;;;;4.20;1.20;;;15.90;99.90;;;;;;5010117;28;20581;-37
2022/07/23 06:17:29;;;;;;;3.67;1.27;;;15.90;99.90;;;;;;5010027;28;20084;-37
2022/07/23 06:19:55;;;;;;;4.15;1.35;;;16.00;99.90;;;;;;5010193;28;20419;-36
2022/07/23 06:22:21;;;;;;;3.83;1.20;;;16.00;99.90;;;;;;5007860;28;20072;-37
2022/07/23 06:24:49;;;;;;;2.63;0.90;;;16.10;99.90;;;;;;5010328;28;20049;-36
2022/07/23 06:27:14;;;;;;;2.22;0.95;;;16.20;99.90;;;;;;5005135;28;20604;-37
2022/07/23 06:29:40;;;;;;;1.35;0.60;;;16.20;99.90;;;;;;5009390;28;20624;-36
2022/07/23 06:32:07;;;;;;;3.75;0.88;;;16.30;99.90;;;;;;5010097;28;20053;-36
2022/07/23 06:34:33;;;;;;;2.08;0.98;;;16.40;99.90;;;;;;5009913;28;20112;-37
2022/07/23 06:36:59;;;;;;;2.60;0.70;;;16.50;99.90;;;;;;4996581;28;20038;-37
2022/07/23 06:39:25;;;;;;;2.08;0.70;;;16.50;99.90;;;;;;4997799;28;20101;-37
2022/07/23 06:41:51;;;;;;;1.95;0.63;;;16.60;99.90;;;;;;5004253;28;20057;-35
2022/07/23 06:44:16;;;;;;;4.85;0.70;;;16.60;99.90;;;;;;5002185;28;20077;-36
2022/07/23 06:46:42;;;;;;;2.00;0.68;;;16.70;99.90;;;;;;5004626;28;20356;-36
2022/07/23 06:49:08;;;;;;;2.70;0.60;;;16.80;99.90;;;;;;5010207;28;20042;-39
2022/07/23 06:51:34;;;;;;;4.28;0.40;;;16.90;99.90;;;;;;5009278;28;20074;-37
2022/07/23 06:54:00;;;;;;;1.70;0.50;;;16.90;99.90;;;;;;5005799;28;20046;-37
2022/07/23 06:56:26;;;;;;;3.88;0.40;;;17.00;99.90;;;;;;5008401;28;20041;-36
2022/07/23 06:58:51;;;;;;;1.80;0.50;;;17.10;99.90;;;;;;5009413;28;20041;-37
2022/07/23 07:01:17;;;;;;;1.25;0.50;;;17.30;99.90;;;;;;5003730;28;20038;-37
2022/07/23 07:03:43;;;;;;;1.85;0.60;;;17.40;99.90;;;;;;4999385;28;20543;-36
2022/07/23 07:06:09;;;;;;;2.58;0.50;;;17.40;99.90;;;;;;5003115;28;20042;-37
2022/07/23 07:08:35;;;;;;;3.80;0.60;;;17.50;99.90;;;;;;5003602;28;20042;-37
2022/07/23 07:11:01;;;;;;;2.15;0.57;;;17.60;99.90;;;;;;5009265;28;20148;-37
2022/07/23 07:13:26;;;;;;;3.60;0.40;;;17.70;99.90;;;;;;5008364;28;20053;-36
2022/07/23 07:15:52;;;;;;;3.83;0.50;;;17.80;99.90;;;;;;5009165;28;20096;-37
2022/07/23 07:18:17;;;;;;;3.05;0.80;;;18.00;99.90;;;;;;5009715;28;20125;-37
2022/07/23 07:20:43;;;;;;;2.88;0.60;;;18.10;99.90;;;;;;5001072;28;20076;-37
2022/07/23 07:23:09;;;;;;;1.23;0.60;;;18.20;99.90;;;;;;5009559;28;20076;-37
2022/07/23 07:25:35;;;;;;;2.83;0.60;;;18.20;99.90;;;;;;5009459;28;20487;-36
2022/07/23 07:28:00;;;;;;;5.38;0.50;;;18.20;99.90;;;;;;5009031;28;20045;-37
2022/07/23 07:30:26;;;;;;;1.48;0.55;;;18.20;99.90;;;;;;5007330;28;20069;-35
2022/07/23 07:32:52;;;;;;;2.30;0.35;;;18.20;99.90;;;;;;4999862;28;20030;-37
2022/07/23 07:35:18;;;;;;;1.73;0.65;;;18.30;99.90;;;;;;4997017;28;20046;-37
2022/07/23 07:37:43;;;;;;;3.15;0.60;;;18.40;99.90;;;;;;5000092;28;20219;-38
2022/07/23 07:40:09;;;;;;;1.30;0.50;;;18.50;99.90;;;;;;5009237;28;20038;-37
2022/07/23 07:42:43;;;;;;;3.38;0.60;;;18.50;99.90;;;;;;5009552;28;20046;-37
2022/07/23 07:45:09;;;;;;;1.77;0.52;;;18.50;99.90;;;;;;5009271;28;20406;-37
2022/07/23 07:47:35;;;;;;;1.48;0.65;;;18.70;99.90;;;;;;5007151;28;20038;-37
2022/07/23 07:50:01;;;;;;;1.50;0.50;;;18.90;99.90;;;;;;5009227;28;20041;-37
2022/07/23 07:52:26;;;;;;;3.90;0.98;;;19.00;99.60;;;;;;5004862;28;20053;-37
2022/07/23 07:54:52;;;;;;;2.00;0.50;;;19.00;99.80;;;;;;5013000;28;20057;-37
2022/07/23 07:57:18;;;;;;;3.13;0.55;;;18.90;98.90;;;;;;5012393;28;20038;-37
2022/07/23 07:59:43;;;;;;;1.75;0.50;;;18.80;99.00;;;;;;5011305;28;20096;-38
2022/07/23 08:02:09;;;;;;;0.80;0.38;;;18.70;98.80;;;;;;5009961;28;20050;-42
2022/07/23 08:04:35;;;;;;;1.77;0.55;;;18.60;99.30;;;;;;5005766;28;20577;-36
2022/07/23 08:07:00;;;;;;;3.53;0.40;;;18.50;98.90;;;;;;5005366;28;20053;-37
2022/07/23 08:09:26;;;;;;;3.28;0.63;;;18.50;99.30;;;;;;5011392;28;20065;-36
2022/07/23 08:11:51;;;;;;;1.95;0.50;;;18.40;99.80;;;;;;5012603;28;20124;-36
2022/07/23 08:14:18;;;;;;;1.17;0.40;;;18.40;99.60;;;;;;5012350;28;20042;-37
2022/07/23 08:16:43;;;;;;;0.82;0.35;;;18.50;99.60;;;;;;5009200;28;20050;-37
2022/07/23 08:19:09;;;;;;;1.98;0.50;;;18.70;99.20;;;;;;5009560;28;20479;-37
2022/07/23 08:21:35;;;;;;;1.08;0.32;;;18.90;98.30;;;;;;5003981;28;20042;-37
2022/07/23 08:24:00;;;;;;;2.67;0.50;;;18.90;97.80;;;;;;5010903;28;20033;-37
2022/07/23 08:26:26;;;;;;;0.80;0.30;;;18.90;98.00;;;;;;5010115;28;20122;-37
2022/07/23 08:28:51;;;;;;;2.70;0.40;;;18.70;98.20;;;;;;5012102;28;20545;-37
2022/07/23 08:31:18;;;;;;;1.30;0.30;;;18.70;98.50;;;;;;5009809;28;20053;-36
2022/07/23 08:33:44;;;;;;;2.50;0.30;;;18.80;98.30;;;;;;4998502;28;20053;-37
2022/07/23 08:36:09;;;;;;;2.92;0.30;;;19.00;97.50;;;;;;5005134;28;20037;-37
2022/07/23 08:38:35;;;;;;;0.90;0.30;;;19.10;97.00;;;;;;5005144;28;20499;-37
2022/07/23 08:41:02;;;;;;;0.95;0.40;;;19.00;96.60;;;;;;4999181;28;20064;-37
2022/07/23 08:43:30;;;;;;;1.40;0.40;;;18.90;96.70;;;;;;5010442;28;20396;-37
2022/07/23 08:45:58;;;;;;;1.35;0.22;;;18.80;96.60;;;;;;5002644;28;20080;-37
2022/07/23 08:48:27;;;;;;;1.23;0.38;;;18.80;96.60;;;;;;5007042;28;20048;-37
2022/07/23 08:50:56;;;;;;;1.15;0.40;;;19.00;95.90;;;;;;5011512;28;20580;-37
2022/07/23 08:53:23;;;;;;;0.57;0.30;;;19.40;95.40;;;;;;5010907;28;20503;-35
2022/07/23 08:55:51;;;;;;;0.73;0.30;;;19.70;94.70;;;;;;5009645;28;20042;-37
2022/07/23 08:58:17;;;;;;;2.10;0.52;;;19.90;93.30;;;;;;5011604;28;20077;-37
2022/07/23 09:00:45;;;;;;;2.38;0.30;;;19.70;92.60;;;;;;5011539;28;20124;-36
2022/07/23 09:03:19;;;;;;;0.30;0.20;;;19.50;92.70;;;;;;5010286;28;20125;-37
2022/07/23 09:05:45;;;;;;;1.17;0.30;;;19.30;93.30;;;;;;5011295;28;20490;-37
2022/07/23 09:08:16;;;;;;;1.05;0.35;;;19.00;93.00;;;;;;5011301;28;20045;-37
2022/07/23 09:10:46;;;;;;;0.30;0.20;;;19.10;92.50;;;;;;5001872;28;20046;-36
2022/07/23 09:13:45;;;;;;;1.27;0.40;;;19.20;92.20;;;;;;5011369;28;20884;-37
2022/07/23 09:16:16;;;;;;;1.02;0.47;;;19.50;91.70;;;;;;5007135;28;20411;-37
2022/07/23 09:18:48;;;;;;;1.15;0.30;;;19.80;90.80;;;;;;5011432;28;20042;-37
2022/07/23 09:21:14;;;;;;;;;;;20.10;90.40;;;;;;5007900;28;20045;-37
2022/07/23 09:23:58;;;;;;;3.40;0.40;;;20.40;88.10;;;;;;5007930;28;19918;-37
2022/07/23 09:26:31;;;;;;;1.20;0.32;;;20.60;89.20;;;;;;5010646;28;20033;-37
2022/07/23 09:29:07;;;;;;;1.50;0.30;;;20.40;86.80;;;;;;5011185;28;20046;-37
2022/07/23 09:31:47;;;;;;;3.25;0.30;;;20.30;86.90;;;;;;5007647;28;20156;-36
2022/07/23 09:34:21;;;;;;;0.55;0.28;;;20.20;83.00;;;;;;5011140;28;20045;-37
2022/07/23 09:36:48;;;;;;;3.33;0.30;;;20.40;86.20;;;;;;5010748;28;20522;-37
2022/07/23 09:39:17;;;;;;;0.55;0.30;;;20.70;85.40;;;;;;5010626;28;20038;-37
2022/07/23 09:41:45;;;;;;;3.00;0.20;;;20.90;83.60;;;;;;5010467;28;20450;-37
2022/07/23 09:44:16;;;;;;;1.02;0.30;;;21.00;83.10;;;;;;5011111;28;20030;-37
2022/07/23 09:46:44;;;;;;;0.65;0.28;;;21.00;81.50;;;;;;5009005;28;20483;-39
2022/07/23 09:49:18;;;;;;;2.13;0.40;;;20.90;82.80;;;;;;5001641;28;20574;-37
2022/07/23 09:51:48;;;;;;;0.77;0.30;;;20.80;83.90;;;;;;4998255;28;20126;-37
2022/07/23 09:54:24;;;;;;;0.30;0.20;;;20.90;82.30;;;;;;5010624;28;20054;-36
2022/07/23 09:56:51;;;;;;;0.82;0.30;;;20.90;81.10;;;;;;5010061;28;20538;-37
2022/07/23 09:59:19;;;;;;;0.80;0.30;;;21.00;83.00;;;;;;5002812;28;20515;-37
2022/07/23 10:01:46;;;;;;;0.68;0.30;;;21.20;83.60;;;;;;5009668;28;20050;-37
2022/07/23 10:04:12;;;;;;;1.58;0.30;;;21.30;79.80;;;;;;5010329;28;20507;-37
2022/07/23 10:06:40;;;;;;;1.02;0.30;;;21.30;78.30;;;;;;5010379;28;20061;-36
2022/07/23 10:09:08;;;;;;;0.70;0.30;;;21.30;78.80;;;;;;5008289;28;20467;-37
2022/07/23 10:11:34;;;;;;;1.52;0.40;;;21.40;76.70;;;;;;5016026;28;20047;-37
2022/07/23 10:14:03;;;;;;;1.25;0.50;;;21.40;77.50;;;;;;5006095;28;20045;-37
2022/07/23 10:16:30;;;;;;;2.30;0.40;;;21.50;75.60;;;;;;4997731;28;20047;-37
2022/07/23 10:18:56;;;;;;;1.25;0.40;;;21.60;75.40;;;;;;5006797;28;20530;-37
2022/07/23 10:21:34;;;;;;;1.95;0.63;;;21.80;74.70;;;;;;5007713;28;20073;-37
2022/07/23 10:24:25;;;;;;;0.80;0.40;;;21.80;72.40;;;;;;5002771;28;20041;-37
2022/07/23 10:27:10;;;;;;;1.27;0.30;;;21.80;72.10;;;;;;5004820;28;20049;-39
2022/07/23 10:30:20;;;;;;;1.08;0.40;;;21.70;73.60;;;;;;5010354;28;20120;-37
2022/07/23 10:32:58;;;;;;;2.28;0.40;;;21.50;73.40;;;;;;4999043;28;20140;-37
2022/07/23 10:35:58;;;;;;;2.10;0.40;;;21.60;75.50;;;;;;5010477;28;20042;-36
2022/07/23 10:38:49;;;;;;;0.65;0.30;;;21.60;70.50;;;;;;5006179;28;20085;-37
2022/07/23 10:41:29;;;;;;;1.65;0.30;;;21.70;71.80;;;;;;5002881;28;20053;-37
2022/07/23 10:44:13;;;;;;;0.70;0.30;;;21.80;73.40;;;;;;5004292;28;20124;-37
2022/07/23 10:49:40;;;;;;;1.20;0.40;;;21.90;73.60;;;;;;5010252;28;20149;-37
2022/07/23 10:52:18;;;;;;;3.10;0.47;;;22.20;74.60;;;;;;5009600;28;20237;-37
2022/07/23 10:54:47;;;;;;;0.65;0.30;;;22.40;73.00;;;;;;5010097;28;20057;-37
2022/07/23 10:57:14;;;;;;;0.77;0.50;;;22.50;71.20;;;;;;5005400;28;20131;-39
2022/07/23 11:00:13;;;;;;;1.27;0.60;;;22.40;68.70;;;;;;5008460;28;20034;-38
2022/07/23 11:02:41;;;;;;;1.95;0.55;;;22.20;63.60;;;;;;5006280;28;20136;-37
2022/07/23 11:05:13;;;;;;;2.78;0.40;;;22.00;70.50;;;;;;5010115;28;20458;-37
2022/07/23 11:08:03;;;;;;;0.90;0.40;;;22.20;71.10;;;;;;5006953;28;20120;-38
2022/07/23 11:10:47;;;;;;;1.52;0.45;;;22.20;70.70;;;;;;5009688;28;20372;-37
2022/07/23 11:13:22;;;;;;;1.40;0.50;;;22.30;70.90;;;;;;5002590;28;20100;-36
2022/07/23 11:16:08;;;;;;;1.33;0.50;;;22.40;72.10;;;;;;5006715;28;20053;-37
2022/07/23 11:18:40;;;;;;;2.45;0.50;;;22.60;70.80;;;;;;5002094;28;20112;-37
2022/07/23 11:21:26;;;;;;;1.10;0.60;;;22.60;68.50;;;;;;5008259;28;20052;-37
2022/07/23 11:24:14;;;;;;;1.50;0.63;;;22.70;68.00;;;;;;5002172;28;20054;-37
2022/07/23 11:26:48;;;;;;;1.67;0.70;;;22.60;62.80;;;;;;5000043;28;20046;-37
2022/07/23 11:29:30;;;;;;;2.63;0.77;;;22.60;68.70;;;;;;4996498;28;20573;-37
2022/07/23 11:32:08;;;;;;;4.68;0.80;;;22.40;67.40;;;;;;5011598;28;20486;-37
2022/07/23 11:34:34;;;;;;;1.25;0.70;;;22.30;63.60;;;;;;5013205;28;20073;-37
2022/07/23 11:37:01;;;;;;;1.42;0.50;;;22.40;71.20;;;;;;5012985;28;20168;-37
2022/07/23 11:39:30;;;;;;;1.77;0.60;;;22.50;71.60;;;;;;5013252;28;20046;-37
2022/07/23 11:41:57;;;;;;;0.82;0.60;;;22.60;68.70;;;;;;5012806;28;20478;-37
2022/07/23 11:44:35;;;;;;;1.98;0.50;;;22.60;68.40;;;;;;5013271;28;20045;-38
2022/07/23 11:47:03;;;;;;;1.23;0.50;;;22.60;70.00;;;;;;5009471;28;20049;-36
2022/07/23 11:49:30;;;;;;;1.58;0.43;;;22.70;69.30;;;;;;5007360;28;20113;-37
2022/07/23 11:52:12;;;;;;;1.50;0.50;;;22.60;69.90;;;;;;5003554;28;20042;-37
2022/07/23 11:55:03;;;;;;;1.55;0.52;;;22.70;72.30;;;;;;5012922;28;20126;-37
2022/07/23 11:57:38;;;;;;;1.92;0.38;;;22.70;70.20;;;;;;5004394;28;20105;-37
2022/07/23 12:00:10;;;;;;;2.08;0.60;;;22.90;71.60;;;;;;5012922;28;20066;-37
2022/07/23 12:02:37;;;;;;;1.23;0.43;;;23.00;70.60;;;;;;5007278;28;20456;-37
2022/07/23 12:05:04;;;;;;;1.65;0.65;;;23.00;69.40;;;;;;4996031;28;20065;-38
2022/07/23 12:07:36;;;;;;;1.33;0.60;;;23.10;68.60;;;;;;5012181;28;20155;-37
2022/07/23 12:10:23;;;;;;;1.40;0.60;;;23.30;67.50;;;;;;5012741;28;20042;-37
2022/07/23 12:12:56;;;;;;;0.80;0.57;;;23.40;63.90;;;;;;5011858;28;20311;-37
2022/07/23 12:15:24;;;;;;;1.05;0.63;;;23.50;61.60;;;;;;5008902;28;20046;-37
2022/07/23 12:17:51;;;;;;;2.72;0.70;;;23.50;65.90;;;;;;5006324;28;20129;-37
2022/07/23 12:20:21;;;;;;;0.95;0.57;;;23.50;64.90;;;;;;5006871;28;20053;-37
2022/07/23 12:22:50;;;;;;;1.83;0.50;;;23.70;65.40;;;;;;5012046;28;20034;-37
2022/07/23 12:25:19;;;;;;;1.15;0.50;;;23.90;62.50;;;;;;5008201;28;20077;-38
2022/07/23 12:27:45;;;;;;;1.33;0.50;;;23.80;63.50;;;;;;5011614;28;20038;-37
2022/07/23 12:30:24;;;;;;;1.55;0.70;;;23.90;65.90;;;;;;5012337;28;20046;-38
2022/07/23 12:32:53;;;;;;;1.88;0.60;;;23.80;60.90;;;;;;5006648;28;20076;-37
2022/07/23 12:35:20;;;;;;;1.25;0.50;;;23.90;62.60;;;;;;5011933;28;20434;-37
2022/07/23 12:37:48;;;;;;;1.67;0.80;;;23.90;63.70;;;;;;5010749;28;20518;-37
2022/07/23 12:40:34;;;;;;;0.88;0.47;;;23.70;63.10;;;;;;5011699;28;20061;-38
2022/07/23 12:43:05;;;;;;;1.35;0.63;;;23.70;64.90;;;;;;5011804;28;20044;-37
2022/07/23 12:45:53;;;;;;;2.33;0.70;;;23.70;65.10;;;;;;5011764;28;20495;-38
2022/07/23 12:48:27;;;;;;;1.70;0.75;;;23.90;65.20;;;;;;5002698;28;20152;-39
2022/07/23 12:50:56;;;;;;;0.80;0.57;;;24.00;63.10;;;;;;5004088;28;20088;-38
2022/07/23 12:53:28;;;;;;;1.23;0.55;;;23.90;62.00;;;;;;5011193;28;20117;-38
2022/07/23 12:56:03;;;;;;;2.60;0.63;;;24.10;62.60;;;;;;5011816;28;20045;-37